sensor_id;sensor_type;location;lat;lon;timestamp;pressure;altitude;pressure_sealevel;temperature;humidity
52735;BME280;38631;47.572;10.704;2023-02-15T00:01:10;93696.47;;;-0.81;89.54
52735;BME280;38631;47.572;10.704;2023-02-15T00:03:36;93687.56;;;-1.18;89.95
52735;BME280;38631;47.572;10.704;2023-02-15T00:06:02;93694.94;;;-0.95;90.03
52735;BME280;38631;47.572;10.704;2023-02-15T00:08:28;93685.06;;;-0.87;89.45
52735;BME280;38631;47.572;10.704;2023-02-15T00:11:12;93688.22;;;-0.71;88.80
52735;BME280;38631;47.572;10.704;2023-02-15T00:13:38;93685.91;;;-0.93;88.89
52735;BME280;38631;47.572;10.704;2023-02-15T00:16:09;93677.31;;;-1.13;89.62
52735;BME280;38631;47.572;10.704;2023-02-15T00:18:35;93679.69;;;-0.92;89.51
52735;BME280;38631;47.572;10.704;2023-02-15T00:21:08;93683.81;;;-0.71;88.13
52735;BME280;38631;47.572;10.704;2023-02-15T00:23:34;93682.84;;;-0.83;88.60
52735;BME280;38631;47.572;10.704;2023-02-15T00:26:08;93673.13;;;-1.07;88.91
52735;BME280;38631;47.572;10.704;2023-02-15T00:28:33;93674.47;;;-0.85;88.49
52735;BME280;38631;47.572;10.704;2023-02-15T00:31:05;93673.78;;;-0.74;87.92
52735;BME280;38631;47.572;10.704;2023-02-15T00:33:31;93679.69;;;-0.92;87.78
52735;BME280;38631;47.572;10.704;2023-02-15T00:36:00;93677.63;;;-0.83;88.47
52735;BME280;38631;47.572;10.704;2023-02-15T00:38:27;93676.81;;;-0.77;86.89
52735;BME280;38631;47.572;10.704;2023-02-15T00:40:58;93675.81;;;-0.76;87.86
52735;BME280;38631;47.572;10.704;2023-02-15T00:43:24;93677.44;;;-0.81;87.20
52735;BME280;38631;47.572;10.704;2023-02-15T00:45:50;93674.47;;;-0.98;87.63
52735;BME280;38631;47.572;10.704;2023-02-15T00:48:15;93664.16;;;-1.25;87.72
52735;BME280;38631;47.572;10.704;2023-02-15T00:50:41;93667.59;;;-1.64;89.38
52735;BME280;38631;47.572;10.704;2023-02-15T00:53:07;93667.97;;;-1.41;88.97
52735;BME280;38631;47.572;10.704;2023-02-15T00:55:32;93665.19;;;-1.53;90.70
52735;BME280;38631;47.572;10.704;2023-02-15T00:57:58;93666.50;;;-1.10;88.72
52735;BME280;38631;47.572;10.704;2023-02-15T01:00:24;93661.16;;;-1.42;88.17
52735;BME280;38631;47.572;10.704;2023-02-15T01:02:49;93661.16;;;-1.35;88.16
52735;BME280;38631;47.572;10.704;2023-02-15T01:05:14;93654.53;;;-1.24;88.38
52735;BME280;38631;47.572;10.704;2023-02-15T01:07:40;93652.53;;;-1.29;87.91
52735;BME280;38631;47.572;10.704;2023-02-15T01:10:06;93662.47;;;-0.99;87.56
52735;BME280;38631;47.572;10.704;2023-02-15T01:12:32;93656.84;;;-1.03;87.56
52735;BME280;38631;47.572;10.704;2023-02-15T01:14:58;93652.94;;;-1.32;89.17
52735;BME280;38631;47.572;10.704;2023-02-15T01:17:23;93649.53;;;-1.39;89.47
52735;BME280;38631;47.572;10.704;2023-02-15T01:19:48;93652.72;;;-1.24;87.88
52735;BME280;38631;47.572;10.704;2023-02-15T01:22:14;93646.94;;;-1.46;88.56
52735;BME280;38631;47.572;10.704;2023-02-15T01:24:39;93649.31;;;-1.31;87.93
52735;BME280;38631;47.572;10.704;2023-02-15T01:27:04;93647.31;;;-1.36;87.79
52735;BME280;38631;47.572;10.704;2023-02-15T01:29:30;93642.97;;;-1.68;88.67
52735;BME280;38631;47.572;10.704;2023-02-15T01:31:55;93644.75;;;-1.49;89.05
52735;BME280;38631;47.572;10.704;2023-02-15T01:34:20;93637.38;;;-2.05;90.29
52735;BME280;38631;47.572;10.704;2023-02-15T01:36:46;93641.34;;;-1.49;89.54
52735;BME280;38631;47.572;10.704;2023-02-15T01:39:11;93640.31;;;-1.35;88.13
52735;BME280;38631;47.572;10.704;2023-02-15T01:41:36;93636.31;;;-1.51;89.24
52735;BME280;38631;47.572;10.704;2023-02-15T01:44:03;93635.75;;;-1.60;88.70
52735;BME280;38631;47.572;10.704;2023-02-15T01:46:51;93635.72;;;-1.53;88.22
52735;BME280;38631;47.572;10.704;2023-02-15T01:49:20;93629.06;;;-1.29;88.04
52735;BME280;38631;47.572;10.704;2023-02-15T01:51:50;93627.25;;;-1.15;86.83
52735;BME280;38631;47.572;10.704;2023-02-15T01:54:37;93627.66;;;-1.25;87.79
52735;BME280;38631;47.572;10.704;2023-02-15T01:57:09;93620.69;;;-1.51;87.06
52735;BME280;38631;47.572;10.704;2023-02-15T01:59:38;93626.97;;;-1.65;88.10
52735;BME280;38631;47.572;10.704;2023-02-15T02:02:07;93620.16;;;-1.80;88.36
52735;BME280;38631;47.572;10.704;2023-02-15T02:04:54;93631.16;;;-1.71;88.99
52735;BME280;38631;47.572;10.704;2023-02-15T02:07:27;93621.16;;;-1.74;88.88
52735;BME280;38631;47.572;10.704;2023-02-15T02:09:52;93614.47;;;-1.37;87.75
52735;BME280;38631;47.572;10.704;2023-02-15T02:12:20;93624.88;;;-1.37;87.53
52735;BME280;38631;47.572;10.704;2023-02-15T02:14:47;93622.66;;;-1.33;87.63
52735;BME280;38631;47.572;10.704;2023-02-15T02:27:51;93618.16;;;-1.91;87.75
52735;BME280;38631;47.572;10.704;2023-02-15T02:36:35;93613.50;;;-1.56;87.53
52735;BME280;38631;47.572;10.704;2023-02-15T02:39:30;93614.91;;;-1.60;86.59
52735;BME280;38631;47.572;10.704;2023-02-15T02:42:06;93617.75;;;-2.01;89.40
52735;BME280;38631;47.572;10.704;2023-02-15T02:47:19;93611.31;;;-1.52;87.21
52735;BME280;38631;47.572;10.704;2023-02-15T02:49:47;93611.31;;;-1.59;86.50
52735;BME280;38631;47.572;10.704;2023-02-15T03:03:18;93608.16;;;-2.14;88.27
52735;BME280;38631;47.572;10.704;2023-02-15T03:05:47;93613.34;;;-1.87;88.36
52735;BME280;38631;47.572;10.704;2023-02-15T03:08:15;93613.97;;;-1.85;87.70
52735;BME280;38631;47.572;10.704;2023-02-15T03:10:48;93612.34;;;-1.86;87.78
52735;BME280;38631;47.572;10.704;2023-02-15T03:13:15;93605.13;;;-1.91;88.06
52735;BME280;38631;47.572;10.704;2023-02-15T03:15:42;93611.34;;;-1.65;87.65
52735;BME280;38631;47.572;10.704;2023-02-15T03:18:33;93605.91;;;-1.57;86.97
52735;BME280;38631;47.572;10.704;2023-02-15T03:21:01;93607.91;;;-1.53;86.92
52735;BME280;38631;47.572;10.704;2023-02-15T03:23:28;93605.09;;;-1.58;85.80
52735;BME280;38631;47.572;10.704;2023-02-15T03:26:00;93606.31;;;-1.74;85.92
52735;BME280;38631;47.572;10.704;2023-02-15T03:28:35;93605.75;;;-2.09;86.60
52735;BME280;38631;47.572;10.704;2023-02-15T03:31:03;93610.53;;;-1.86;87.32
52735;BME280;38631;47.572;10.704;2023-02-15T03:33:29;93602.13;;;-1.81;87.41
52735;BME280;38631;47.572;10.704;2023-02-15T03:36:09;93608.75;;;-2.12;87.09
52735;BME280;38631;47.572;10.704;2023-02-15T03:38:49;93604.34;;;-1.91;87.63
52735;BME280;38631;47.572;10.704;2023-02-15T03:41:16;93609.53;;;-1.78;86.61
52735;BME280;38631;47.572;10.704;2023-02-15T03:43:53;93614.53;;;-1.77;86.52
52735;BME280;38631;47.572;10.704;2023-02-15T03:46:32;93614.94;;;-2.46;88.67
52735;BME280;38631;47.572;10.704;2023-02-15T03:49:03;93607.16;;;-1.93;87.92
52735;BME280;38631;47.572;10.704;2023-02-15T03:51:33;93616.16;;;-1.89;87.00
52735;BME280;38631;47.572;10.704;2023-02-15T03:56:39;93612.16;;;-2.18;87.88
52735;BME280;38631;47.572;10.704;2023-02-15T03:59:05;93614.78;;;-1.98;86.78
52735;BME280;38631;47.572;10.704;2023-02-15T04:02:12;93612.16;;;-2.18;86.98
52735;BME280;38631;47.572;10.704;2023-02-15T04:04:46;93617.78;;;-1.88;87.03
52735;BME280;38631;47.572;10.704;2023-02-15T04:07:11;93613.75;;;-1.84;86.25
52735;BME280;38631;47.572;10.704;2023-02-15T04:09:37;93623.38;;;-1.98;86.12
52735;BME280;38631;47.572;10.704;2023-02-15T04:12:21;93620.75;;;-1.91;86.32
52735;BME280;38631;47.572;10.704;2023-02-15T04:14:47;93625.19;;;-1.98;87.19
52735;BME280;38631;47.572;10.704;2023-02-15T04:17:50;93621.16;;;-1.94;86.37
52735;BME280;38631;47.572;10.704;2023-02-15T04:20:16;93631.97;;;-2.30;87.81
52735;BME280;38631;47.572;10.704;2023-02-15T04:22:59;93621.97;;;-2.07;86.90
52735;BME280;38631;47.572;10.704;2023-02-15T04:25:43;93619.97;;;-1.98;87.38
52735;BME280;38631;47.572;10.704;2023-02-15T04:28:09;93619.75;;;-1.83;86.62
52735;BME280;38631;47.572;10.704;2023-02-15T04:30:34;93617.16;;;-1.77;86.22
52735;BME280;38631;47.572;10.704;2023-02-15T04:32:59;93622.19;;;-1.95;86.50
52735;BME280;38631;47.572;10.704;2023-02-15T04:35:25;93620.97;;;-1.92;86.62
52735;BME280;38631;47.572;10.704;2023-02-15T04:37:50;93613.72;;;-2.44;88.37
52735;BME280;38631;47.572;10.704;2023-02-15T04:40:17;93620.56;;;-2.43;89.21
52735;BME280;38631;47.572;10.704;2023-02-15T04:42:42;93613.56;;;-2.15;88.37
52735;BME280;38631;47.572;10.704;2023-02-15T04:45:08;93619.38;;;-2.00;86.79
52735;BME280;38631;47.572;10.704;2023-02-15T04:47:33;93614.38;;;-2.15;88.00
52735;BME280;38631;47.572;10.704;2023-02-15T04:49:59;93611.34;;;-1.99;87.56
52735;BME280;38631;47.572;10.704;2023-02-15T04:52:24;93609.97;;;-2.08;86.87
52735;BME280;38631;47.572;10.704;2023-02-15T04:54:49;93612.38;;;-2.13;87.54
52735;BME280;38631;47.572;10.704;2023-02-15T04:57:15;93615.16;;;-2.01;87.68
52735;BME280;38631;47.572;10.704;2023-02-15T04:59:40;93618.56;;;-2.01;86.95
52735;BME280;38631;47.572;10.704;2023-02-15T05:02:06;93615.97;;;-2.07;86.61
52735;BME280;38631;47.572;10.704;2023-02-15T05:04:31;93621.38;;;-1.96;86.32
52735;BME280;38631;47.572;10.704;2023-02-15T05:06:57;93616.94;;;-2.08;86.29
52735;BME280;38631;47.572;10.704;2023-02-15T05:09:22;93617.78;;;-2.08;86.94
52735;BME280;38631;47.572;10.704;2023-02-15T05:11:47;93609.97;;;-2.08;87.19
52735;BME280;38631;47.572;10.704;2023-02-15T05:14:13;93617.16;;;-2.03;86.43
52735;BME280;38631;47.572;10.704;2023-02-15T05:16:38;93609.56;;;-2.05;86.42
52735;BME280;38631;47.572;10.704;2023-02-15T05:19:04;93614.56;;;-1.97;86.34
52735;BME280;38631;47.572;10.704;2023-02-15T05:21:29;93614.53;;;-2.36;86.55
52735;BME280;38631;47.572;10.704;2023-02-15T05:23:54;93611.56;;;-2.20;86.94
52735;BME280;38631;47.572;10.704;2023-02-15T05:26:22;93612.16;;;-2.18;86.43
52735;BME280;38631;47.572;10.704;2023-02-15T05:29:07;93616.53;;;-2.39;87.68
52735;BME280;38631;47.572;10.704;2023-02-15T05:31:33;93614.13;;;-2.53;87.61
52735;BME280;38631;47.572;10.704;2023-02-15T05:33:59;93607.16;;;-2.13;87.88
52735;BME280;38631;47.572;10.704;2023-02-15T05:36:24;93612.16;;;-2.25;86.26
52735;BME280;38631;47.572;10.704;2023-02-15T05:38:50;93607.53;;;-2.49;87.17
52735;BME280;38631;47.572;10.704;2023-02-15T05:41:15;93607.75;;;-2.18;86.54
52735;BME280;38631;47.572;10.704;2023-02-15T05:43:41;93609.94;;;-2.41;86.19
52735;BME280;38631;47.572;10.704;2023-02-15T05:46:07;93607.53;;;-2.43;86.24
52735;BME280;38631;47.572;10.704;2023-02-15T05:48:32;93613.75;;;-2.30;86.28
52735;BME280;38631;47.572;10.704;2023-02-15T05:51:09;93615.97;;;-2.27;85.44
52735;BME280;38631;47.572;10.704;2023-02-15T05:53:38;93616.75;;;-2.27;85.88
52735;BME280;38631;47.572;10.704;2023-02-15T05:56:06;93606.53;;;-2.48;86.64
52735;BME280;38631;47.572;10.704;2023-02-15T05:58:34;93611.75;;;-2.28;86.19
52735;BME280;38631;47.572;10.704;2023-02-15T06:00:59;93606.97;;;-2.18;86.09
52735;BME280;38631;47.572;10.704;2023-02-15T06:03:25;93608.16;;;-2.27;86.17
52735;BME280;38631;47.572;10.704;2023-02-15T06:05:53;93604.56;;;-2.13;85.26
52735;BME280;38631;47.572;10.704;2023-02-15T06:08:18;93601.13;;;-2.13;85.15
52735;BME280;38631;47.572;10.704;2023-02-15T06:10:45;93613.75;;;-2.37;85.75
52735;BME280;38631;47.572;10.704;2023-02-15T06:13:10;93612.34;;;-2.26;85.80
52735;BME280;38631;47.572;10.704;2023-02-15T06:15:36;93606.34;;;-2.27;86.03
52735;BME280;38631;47.572;10.704;2023-02-15T06:18:01;93606.34;;;-2.07;85.40
52735;BME280;38631;47.572;10.704;2023-02-15T06:20:27;93616.16;;;-2.42;85.32
52735;BME280;38631;47.572;10.704;2023-02-15T06:22:52;93626.88;;;-2.72;87.01
52735;BME280;38631;47.572;10.704;2023-02-15T06:25:18;93621.53;;;-2.57;87.82
52735;BME280;38631;47.572;10.704;2023-02-15T06:27:43;93631.94;;;-2.37;87.19
52735;BME280;38631;47.572;10.704;2023-02-15T06:30:10;93636.56;;;-2.32;86.13
52735;BME280;38631;47.572;10.704;2023-02-15T06:32:36;93632.34;;;-2.33;86.75
52735;BME280;38631;47.572;10.704;2023-02-15T06:35:01;93638.75;;;-2.43;87.18
52735;BME280;38631;47.572;10.704;2023-02-15T06:37:26;93640.81;;;-2.93;88.39
52735;BME280;38631;47.572;10.704;2023-02-15T06:39:52;93637.03;;;-2.90;88.81
52735;BME280;38631;47.572;10.704;2023-02-15T06:42:17;93637.34;;;-2.45;87.67
52735;BME280;38631;47.572;10.704;2023-02-15T06:44:43;93638.72;;;-2.49;87.64
52735;BME280;38631;47.572;10.704;2023-02-15T06:47:09;93644.53;;;-2.47;86.95
52735;BME280;38631;47.572;10.704;2023-02-15T06:49:34;93642.47;;;-2.72;88.59
52735;BME280;38631;47.572;10.704;2023-02-15T06:51:59;93641.97;;;-2.41;87.86
52735;BME280;38631;47.572;10.704;2023-02-15T06:54:25;93641.72;;;-2.52;87.67
52735;BME280;38631;47.572;10.704;2023-02-15T06:56:50;93640.97;;;-2.33;87.21
52735;BME280;38631;47.572;10.704;2023-02-15T06:59:15;93641.38;;;-2.29;86.64
52735;BME280;38631;47.572;10.704;2023-02-15T07:01:41;93637.78;;;-2.22;86.31
52735;BME280;38631;47.572;10.704;2023-02-15T07:04:06;93640.78;;;-2.25;86.42
52735;BME280;38631;47.572;10.704;2023-02-15T07:06:32;93635.38;;;-2.23;86.74
52735;BME280;38631;47.572;10.704;2023-02-15T07:08:58;93639.97;;;-2.25;86.62
52735;BME280;38631;47.572;10.704;2023-02-15T07:11:24;93637.75;;;-2.42;87.78
52735;BME280;38631;47.572;10.704;2023-02-15T07:14:08;93638.56;;;-2.14;86.82
52735;BME280;38631;47.572;10.704;2023-02-15T07:16:33;93641.19;;;-2.08;87.06
52735;BME280;38631;47.572;10.704;2023-02-15T07:18:59;93633.00;;;-1.98;86.76
52735;BME280;38631;47.572;10.704;2023-02-15T07:21:24;93636.38;;;-1.91;86.15
52735;BME280;38631;47.572;10.704;2023-02-15T07:23:50;93628.34;;;-1.63;85.73
52735;BME280;38631;47.572;10.704;2023-02-15T07:26:15;93626.34;;;-1.81;85.59
52735;BME280;38631;47.572;10.704;2023-02-15T07:28:40;93625.78;;;-1.89;86.62
52735;BME280;38631;47.572;10.704;2023-02-15T07:31:06;93631.38;;;-1.79;87.18
52735;BME280;38631;47.572;10.704;2023-02-15T07:33:32;93631.69;;;-1.36;86.05
52735;BME280;38631;47.572;10.704;2023-02-15T07:35:59;93637.84;;;-1.17;85.16
52735;BME280;38631;47.572;10.704;2023-02-15T07:38:27;93637.44;;;-1.14;85.93
52735;BME280;38631;47.572;10.704;2023-02-15T07:40:58;93638.56;;;-0.90;85.37
52735;BME280;38631;47.572;10.704;2023-02-15T07:43:24;93642.91;;;-0.70;85.49
52735;BME280;38631;47.572;10.704;2023-02-15T07:45:49;93640.88;;;-0.68;85.97
52735;BME280;38631;47.572;10.704;2023-02-15T07:48:14;93640.13;;;-0.44;85.39
52735;BME280;38631;47.572;10.704;2023-02-15T07:50:40;93643.47;;;-0.30;85.43
52735;BME280;38631;47.572;10.704;2023-02-15T07:53:05;93641.41;;;-0.21;84.26
52735;BME280;38631;47.572;10.704;2023-02-15T07:55:31;93639.81;;;-0.22;84.05
52735;BME280;38631;47.572;10.704;2023-02-15T07:57:56;93642.38;;;-0.15;83.82
52735;BME280;38631;47.572;10.704;2023-02-15T08:00:22;93645.38;;;-0.12;84.43
52735;BME280;38631;47.572;10.704;2023-02-15T08:02:59;93643.25;;;0.04;84.13
52735;BME280;38631;47.572;10.704;2023-02-15T08:05:42;93640.63;;;0.04;85.16
52735;BME280;38631;47.572;10.704;2023-02-15T08:08:08;93639.13;;;0.14;84.58
52735;BME280;38631;47.572;10.704;2023-02-15T08:11:00;93636.81;;;0.31;84.23
52735;BME280;38631;47.572;10.704;2023-02-15T08:13:45;93636.69;;;0.45;83.71
52735;BME280;38631;47.572;10.704;2023-02-15T08:16:23;93631.69;;;0.61;82.83
52735;BME280;38631;47.572;10.704;2023-02-15T08:18:49;93627.72;;;0.59;82.94
52735;BME280;38631;47.572;10.704;2023-02-15T08:21:15;93626.97;;;0.70;78.79
52735;BME280;38631;47.572;10.704;2023-02-15T08:23:42;93624.75;;;0.92;79.73
52735;BME280;38631;47.572;10.704;2023-02-15T08:26:08;93629.69;;;1.00;79.94
52735;BME280;38631;47.572;10.704;2023-02-15T08:28:33;93627.50;;;0.97;80.42
52735;BME280;38631;47.572;10.704;2023-02-15T08:31:09;93637.06;;;1.22;78.25
52735;BME280;38631;47.572;10.704;2023-02-15T08:33:36;93626.31;;;1.30;76.71
52735;BME280;38631;47.572;10.704;2023-02-15T08:36:22;93634.81;;;1.44;76.31
52735;BME280;38631;47.572;10.704;2023-02-15T08:38:48;93627.66;;;1.51;74.83
52735;BME280;38631;47.572;10.704;2023-02-15T08:43:42;93637.75;;;1.47;75.88
52735;BME280;38631;47.572;10.704;2023-02-15T08:46:08;93627.31;;;1.89;73.51
52735;BME280;38631;47.572;10.704;2023-02-15T08:48:34;93631.28;;;1.80;74.21
52735;BME280;38631;47.572;10.704;2023-02-15T08:51:08;93625.88;;;2.05;72.11
52735;BME280;38631;47.572;10.704;2023-02-15T08:53:35;93624.00;;;2.36;71.08
52735;BME280;38631;47.572;10.704;2023-02-15T08:56:01;93622.50;;;2.16;72.99
52735;BME280;38631;47.572;10.704;2023-02-15T08:58:28;93618.75;;;2.71;70.67
52735;BME280;38631;47.572;10.704;2023-02-15T09:00:54;93625.94;;;2.52;70.14
52735;BME280;38631;47.572;10.704;2023-02-15T09:03:19;93629.88;;;2.20;71.63
52735;BME280;38631;47.572;10.704;2023-02-15T09:05:44;93626.00;;;2.10;72.38
52735;BME280;38631;47.572;10.704;2023-02-15T09:08:10;93621.28;;;2.66;65.31
52735;BME280;38631;47.572;10.704;2023-02-15T09:10:35;93613.97;;;2.56;67.19
52735;BME280;38631;47.572;10.704;2023-02-15T09:13:00;93623.50;;;2.98;65.62
52735;BME280;38631;47.572;10.704;2023-02-15T09:15:26;93621.06;;;3.08;65.24
52735;BME280;38631;47.572;10.704;2023-02-15T09:17:51;93619.31;;;3.37;65.12
52735;BME280;38631;47.572;10.704;2023-02-15T09:20:16;93617.34;;;3.44;66.17
52735;BME280;38631;47.572;10.704;2023-02-15T09:22:42;93605.13;;;3.38;66.52
52735;BME280;38631;47.572;10.704;2023-02-15T09:25:08;93609.09;;;3.12;67.33
52735;BME280;38631;47.572;10.704;2023-02-15T09:27:33;93604.81;;;3.35;66.69
52735;BME280;38631;47.572;10.704;2023-02-15T09:29:58;93608.69;;;3.44;67.32
52735;BME280;38631;47.572;10.704;2023-02-15T09:32:24;93604.19;;;3.56;66.42
52735;BME280;38631;47.572;10.704;2023-02-15T09:34:49;93606.03;;;3.73;65.08
52735;BME280;38631;47.572;10.704;2023-02-15T09:37:15;93605.81;;;3.74;63.46
52735;BME280;38631;47.572;10.704;2023-02-15T09:39:42;93604.88;;;3.97;64.93
52735;BME280;38631;47.572;10.704;2023-02-15T09:42:56;93611.50;;;4.00;63.89
52735;BME280;38631;47.572;10.704;2023-02-15T09:48:38;93609.47;;;3.73;65.51
52735;BME280;38631;47.572;10.704;2023-02-15T09:51:48;93613.16;;;3.60;67.03
52735;BME280;38631;47.572;10.704;2023-02-15T09:54:52;93611.31;;;3.44;67.59
52735;BME280;38631;47.572;10.704;2023-02-15T10:14:19;93610.47;;;5.07;62.11
52735;BME280;38631;47.572;10.704;2023-02-15T10:17:08;93607.47;;;5.43;60.52
52735;BME280;38631;47.572;10.704;2023-02-15T10:19:53;93607.03;;;5.07;60.92
52735;BME280;38631;47.572;10.704;2023-02-15T10:27:48;93596.13;;;4.98;62.50
52735;BME280;38631;47.572;10.704;2023-02-15T10:30:31;93594.47;;;5.58;62.23
52735;BME280;38631;47.572;10.704;2023-02-15T10:33:01;93593.66;;;5.57;60.95
52735;BME280;38631;47.572;10.704;2023-02-15T10:38:42;93591.28;;;5.56;60.82
52735;BME280;38631;47.572;10.704;2023-02-15T10:41:27;93588.09;;;5.81;59.26
52735;BME280;38631;47.572;10.704;2023-02-15T10:49:37;93580.09;;;6.62;57.08
52735;BME280;38631;47.572;10.704;2023-02-15T10:52:22;93581.94;;;6.67;56.83
52735;BME280;38631;47.572;10.704;2023-02-15T11:00:48;93579.91;;;6.79;58.93
52735;BME280;38631;47.572;10.704;2023-02-15T11:06:04;93577.91;;;6.97;58.04
52735;BME280;38631;47.572;10.704;2023-02-15T11:08:34;93576.34;;;6.96;59.05
52735;BME280;38631;47.572;10.704;2023-02-15T11:11:03;93569.53;;;7.05;57.13
52735;BME280;38631;47.572;10.704;2023-02-15T11:13:35;93562.38;;;7.05;58.10
52735;BME280;38631;47.572;10.704;2023-02-15T11:16:13;93568.59;;;6.84;59.19
52735;BME280;38631;47.572;10.704;2023-02-15T11:21:38;93564.00;;;7.17;57.38
52735;BME280;38631;47.572;10.704;2023-02-15T11:24:10;93550.56;;;7.18;58.02
52735;BME280;38631;47.572;10.704;2023-02-15T11:26:43;93544.16;;;7.09;57.15
52735;BME280;38631;47.572;10.704;2023-02-15T11:32:22;93539.47;;;7.21;52.67
52735;BME280;38631;47.572;10.704;2023-02-15T11:37:36;93526.06;;;7.43;50.16
52735;BME280;38631;47.572;10.704;2023-02-15T11:43:02;93522.63;;;7.43;49.76
52735;BME280;38631;47.572;10.704;2023-02-15T11:45:31;93515.28;;;7.75;48.77
52735;BME280;38631;47.572;10.704;2023-02-15T11:47:58;93519.00;;;7.85;49.50
52735;BME280;38631;47.572;10.704;2023-02-15T11:50:27;93512.34;;;7.62;52.32
52735;BME280;38631;47.572;10.704;2023-02-15T11:52:58;93513.44;;;7.86;53.39
52735;BME280;38631;47.572;10.704;2023-02-15T11:55:24;93509.47;;;7.84;54.91
52735;BME280;38631;47.572;10.704;2023-02-15T11:57:56;93499.69;;;8.56;54.06
52735;BME280;38631;47.572;10.704;2023-02-15T12:00:45;93497.56;;;8.37;53.74
52735;BME280;38631;47.572;10.704;2023-02-15T12:03:17;93499.19;;;8.43;54.39
52735;BME280;38631;47.572;10.704;2023-02-15T12:05:46;93503.38;;;8.50;51.79
52735;BME280;38631;47.572;10.704;2023-02-15T12:08:16;93503.69;;;8.28;53.18
52735;BME280;38631;47.572;10.704;2023-02-15T12:11:06;93496.78;;;8.47;51.38
52735;BME280;38631;47.572;10.704;2023-02-15T12:13:32;93497.28;;;8.59;51.38
52735;BME280;38631;47.572;10.704;2023-02-15T12:16:05;93492.00;;;8.59;51.09
52735;BME280;38631;47.572;10.704;2023-02-15T12:18:36;93488.06;;;8.47;49.39
52735;BME280;38631;47.572;10.704;2023-02-15T12:21:12;93480.66;;;8.23;49.11
52735;BME280;38631;47.572;10.704;2023-02-15T12:23:51;93475.88;;;8.30;47.38
52735;BME280;38631;47.572;10.704;2023-02-15T12:26:28;93475.28;;;8.74;48.08
52735;BME280;38631;47.572;10.704;2023-02-15T12:28:56;93480.22;;;9.01;45.65
52735;BME280;38631;47.572;10.704;2023-02-15T12:31:55;93470.41;;;9.02;45.80
52735;BME280;38631;47.572;10.704;2023-02-15T12:34:36;93469.75;;;8.60;48.03
52735;BME280;38631;47.572;10.704;2023-02-15T12:37:11;93468.16;;;8.59;48.81
52735;BME280;38631;47.572;10.704;2023-02-15T12:39:51;93469.69;;;8.86;46.80
52735;BME280;38631;47.572;10.704;2023-02-15T12:42:17;93469.38;;;8.93;46.07
52735;BME280;38631;47.572;10.704;2023-02-15T12:45:21;93462.47;;;9.02;45.46
52735;BME280;38631;47.572;10.704;2023-02-15T12:50:40;93462.75;;;8.90;48.11
52735;BME280;38631;47.572;10.704;2023-02-15T12:55:31;93456.84;;;9.14;45.75
52735;BME280;38631;47.572;10.704;2023-02-15T12:58:18;93456.66;;;8.95;44.73
52735;BME280;38631;47.572;10.704;2023-02-15T13:00:44;93444.19;;;9.05;45.53
52735;BME280;38631;47.572;10.704;2023-02-15T13:03:19;93439.50;;;9.37;43.97
52735;BME280;38631;47.572;10.704;2023-02-15T13:05:49;93437.97;;;9.25;43.84
52735;BME280;38631;47.572;10.704;2023-02-15T13:08:37;93445.50;;;9.08;45.52
52735;BME280;38631;47.572;10.704;2023-02-15T13:11:09;93435.63;;;9.19;43.27
52735;BME280;38631;47.572;10.704;2023-02-15T13:13:47;93436.00;;;8.97;43.30
52735;BME280;38631;47.572;10.704;2023-02-15T13:16:20;93445.34;;;9.34;41.57
52735;BME280;38631;47.572;10.704;2023-02-15T13:18:51;93436.22;;;9.50;41.90
52735;BME280;38631;47.572;10.704;2023-02-15T13:21:23;93435.78;;;9.33;42.37
52735;BME280;38631;47.572;10.704;2023-02-15T13:24:25;93417.88;;;9.59;42.48
52735;BME280;38631;47.572;10.704;2023-02-15T13:29:30;93422.31;;;9.29;42.88
52735;BME280;38631;47.572;10.704;2023-02-15T13:31:58;93421.22;;;9.30;43.57
52735;BME280;38631;47.572;10.704;2023-02-15T13:34:29;93425.41;;;8.97;43.77
52735;BME280;38631;47.572;10.704;2023-02-15T13:37:07;93420.56;;;9.88;42.70
52735;BME280;38631;47.572;10.704;2023-02-15T13:39:47;93416.16;;;9.73;42.39
52735;BME280;38631;47.572;10.704;2023-02-15T13:42:31;93413.16;;;9.85;44.05
52735;BME280;38631;47.572;10.704;2023-02-15T13:45:15;93407.72;;;9.71;44.24
52735;BME280;38631;47.572;10.704;2023-02-15T13:48:57;93414.53;;;9.77;44.57
52735;BME280;38631;47.572;10.704;2023-02-15T13:53:42;93404.53;;;9.69;43.70
52735;BME280;38631;47.572;10.704;2023-02-15T13:59:20;93407.47;;;9.67;45.18
52735;BME280;38631;47.572;10.704;2023-02-15T14:01:56;93408.84;;;9.60;46.04
52735;BME280;38631;47.572;10.704;2023-02-15T14:07:54;93400.59;;;9.95;44.78
52735;BME280;38631;47.572;10.704;2023-02-15T14:18:59;93404.31;;;10.24;43.45
52735;BME280;38631;47.572;10.704;2023-02-15T14:21:58;93399.66;;;10.10;42.35
52735;BME280;38631;47.572;10.704;2023-02-15T14:24:46;93398.50;;;9.92;43.33
52735;BME280;38631;47.572;10.704;2023-02-15T14:29:56;93391.28;;;9.98;43.37
52735;BME280;38631;47.572;10.704;2023-02-15T14:34:53;93399.97;;;10.09;43.19
52735;BME280;38631;47.572;10.704;2023-02-15T14:40:29;93393.28;;;10.11;43.74
52735;BME280;38631;47.572;10.704;2023-02-15T14:43:17;93395.91;;;10.16;43.18
52735;BME280;38631;47.572;10.704;2023-02-15T14:48:28;93397.19;;;10.19;43.24
52735;BME280;38631;47.572;10.704;2023-02-15T14:50:55;93398.78;;;10.20;43.42
52735;BME280;38631;47.572;10.704;2023-02-15T14:58:58;93394.41;;;10.05;42.96
52735;BME280;38631;47.572;10.704;2023-02-15T15:01:26;93399.72;;;10.05;43.44
52735;BME280;38631;47.572;10.704;2023-02-15T15:03:55;93396.09;;;9.62;46.66
52735;BME280;38631;47.572;10.704;2023-02-15T15:06:26;93397.28;;;9.45;47.81
52735;BME280;38631;47.572;10.704;2023-02-15T15:09:00;93399.53;;;9.28;49.00
52735;BME280;38631;47.572;10.704;2023-02-15T15:11:44;93403.53;;;9.25;49.74
52735;BME280;38631;47.572;10.704;2023-02-15T15:14:35;93395.44;;;9.01;50.70
52735;BME280;38631;47.572;10.704;2023-02-15T15:16:56;93396.50;;;9.05;50.66
52735;BME280;38631;47.572;10.704;2023-02-15T15:22:18;93397.47;;;9.15;50.08
52735;BME280;38631;47.572;10.704;2023-02-15T15:41:53;93397.88;;;8.87;50.99
52735;BME280;38631;47.572;10.704;2023-02-15T15:47:37;93404.84;;;8.73;51.05
52735;BME280;38631;47.572;10.704;2023-02-15T15:50:15;93401.75;;;8.51;52.47